Time;durP1;ratioP1;P1;durP2;ratioP2;P2;SDS_P1;SDS_P2;PMS_P1;PMS_P2;Temp;Humidity;BMP_temperature;BMP_pressure;BME280_temperature;BME280_humidity;BME280_pressure;Samples;Min_cycle;Max_cycle;Signal;HPM_P1;HPM_P2
2022/04/01 00:00:56;;;;;;;9.43;6.97;;;;;;;;;;5096984;28;20682;-57
2022/04/01 00:03:23;;;;;;;7.80;6.55;;;;;;;;;;5097435;28;20279;-57
2022/04/01 00:05:53;;;;;;;8.32;6.70;;;;;;;;;;5097168;28;20298;-57
2022/04/01 00:08:21;;;;;;;7.78;6.68;;;;;;;;;;5097521;28;20204;-57
2022/04/01 00:10:48;;;;;;;8.20;6.40;;;;;;;;;;5097292;28;20590;-57
2022/04/01 00:13:16;;;;;;;7.13;6.30;;;;;;;;;;5097159;28;20299;-57
2022/04/01 00:15:43;;;;;;;8.27;6.63;;;;;;;;;;5096848;28;20665;-58
2022/04/01 00:18:11;;;;;;;6.88;6.18;;;;;;;;;;5097289;28;20309;-57
2022/04/01 00:20:38;;;;;;;7.53;6.30;;;;;;;;;;5097240;28;20207;-58
2022/04/01 00:23:07;;;;;;;7.70;6.22;;;;;;;;;;5097424;28;20237;-58
2022/04/01 00:25:34;;;;;;;8.13;6.07;;;;;;;;;;5097396;28;20302;-58
2022/04/01 00:28:02;;;;;;;7.30;6.18;;;;;;;;;;5096667;28;20228;-57
2022/04/01 00:30:29;;;;;;;6.40;5.60;;;;;;;;;;5096685;28;20848;-58
2022/04/01 00:33:00;;;;;;;6.93;5.70;;;;;;;;;;5096313;28;20234;-58
2022/04/01 00:35:28;;;;;;;7.05;6.00;;;;;;;;;;5096263;28;20291;-57
2022/04/01 00:37:56;;;;;;;6.40;5.32;;;;;;;;;;5096512;28;20198;-57
2022/04/01 00:40:25;;;;;;;6.43;5.40;;;;;;;;;;5096823;28;20314;-57
2022/04/01 00:42:52;;;;;;;6.40;5.75;;;;;;;;;;5096611;28;20196;-58
2022/04/01 00:45:20;;;;;;;6.82;5.97;;;;;;;;;;5096994;28;20298;-57
2022/04/01 00:47:48;;;;;;;7.60;5.63;;;;;;;;;;5096774;28;20583;-57
2022/04/01 00:50:15;;;;;;;6.18;5.45;;;;;;;;;;5095999;28;20292;-57
2022/04/01 00:52:44;;;;;;;5.75;5.13;;;;;;;;;;5097282;28;20287;-58
2022/04/01 00:55:11;;;;;;;6.38;5.22;;;;;;;;;;5100578;28;20298;-57
2022/04/01 00:57:41;;;;;;;5.97;5.10;;;;;;;;;;5100452;28;20239;-57
2022/04/01 01:00:12;;;;;;;5.75;5.20;;;;;;;;;;5100233;28;20337;-57
2022/04/01 01:02:40;;;;;;;5.57;5.07;;;;;;;;;;5100313;28;20264;-58
2022/04/01 01:05:08;;;;;;;5.40;4.90;;;;;;;;;;5099905;28;20199;-58
2022/04/01 01:07:36;;;;;;;5.53;5.03;;;;;;;;;;5099945;28;20318;-58
2022/04/01 01:10:04;;;;;;;5.22;4.72;;;;;;;;;;5100655;28;20478;-57
2022/04/01 01:12:32;;;;;;;5.75;4.68;;;;;;;;;;5099846;28;20583;-58
2022/04/01 01:15:10;;;;;;;5.50;4.88;;;;;;;;;;5099379;28;20246;-56
2022/04/01 01:17:39;;;;;;;5.70;4.32;;;;;;;;;;5099914;28;20200;-57
2022/04/01 01:20:12;;;;;;;5.45;4.72;;;;;;;;;;5099651;28;20195;-57
2022/04/01 01:22:40;;;;;;;4.75;4.35;;;;;;;;;;5099979;28;20200;-57
2022/04/01 01:25:11;;;;;;;5.07;4.57;;;;;;;;;;5099530;28;20195;-57
2022/04/01 01:27:39;;;;;;;5.18;4.68;;;;;;;;;;5099623;28;20219;-57
2022/04/01 01:30:07;;;;;;;5.22;4.72;;;;;;;;;;5100329;28;20242;-57
2022/04/01 01:32:35;;;;;;;4.47;4.07;;;;;;;;;;5099393;28;20200;-57
2022/04/01 01:35:03;;;;;;;4.70;4.07;;;;;;;;;;5100129;28;20207;-57
2022/04/01 01:37:30;;;;;;;4.95;4.45;;;;;;;;;;5098905;28;20294;-57
2022/04/01 01:39:59;;;;;;;4.22;3.83;;;;;;;;;;5099787;28;20302;-57
2022/04/01 01:42:28;;;;;;;4.53;4.13;;;;;;;;;;5099322;28;20199;-57
2022/04/01 01:44:58;;;;;;;4.40;4.00;;;;;;;;;;5099445;28;20211;-57
2022/04/01 01:47:25;;;;;;;4.15;3.78;;;;;;;;;;5099371;28;20223;-57
2022/04/01 01:55:34;;;;;;;4.13;3.80;;;;;;;;;;5089393;28;20207;-57
2022/04/01 01:58:04;;;;;;;4.43;4.03;;;;;;;;;;5099175;28;20279;-57
2022/04/01 02:00:31;;;;;;;4.28;3.88;;;;;;;;;;5099052;28;20210;-57
2022/04/01 02:02:59;;;;;;;4.03;3.72;;;;;;;;;;5099201;28;20658;-57
2022/04/01 02:05:26;;;;;;;4.32;3.92;;;;;;;;;;5099451;28;20302;-57
2022/04/01 02:07:54;;;;;;;4.07;3.78;;;;;;;;;;5099409;28;20318;-57
2022/04/01 02:10:21;;;;;;;4.43;4.03;;;;;;;;;;5099261;28;20290;-57
2022/04/01 02:12:49;;;;;;;4.50;4.10;;;;;;;;;;5099530;28;20298;-57
2022/04/01 02:15:18;;;;;;;4.25;3.85;;;;;;;;;;5098934;28;20291;-57
2022/04/01 02:17:46;;;;;;;4.05;3.75;;;;;;;;;;5099243;28;20200;-57
2022/04/01 02:20:14;;;;;;;3.97;3.67;;;;;;;;;;5098757;28;20598;-58
2022/04/01 02:22:41;;;;;;;4.10;3.75;;;;;;;;;;5099109;28;20299;-57
2022/04/01 02:25:11;;;;;;;3.70;3.40;;;;;;;;;;5099028;28;20302;-57
2022/04/01 02:27:38;;;;;;;3.60;3.30;;;;;;;;;;5098906;28;20273;-57
2022/04/01 02:30:10;;;;;;;3.78;3.47;;;;;;;;;;5098865;28;20302;-57
2022/04/01 02:32:39;;;;;;;3.58;3.28;;;;;;;;;;5098461;28;20204;-57
2022/04/01 02:35:07;;;;;;;3.80;3.50;;;;;;;;;;5098840;28;20302;-57
2022/04/01 02:37:35;;;;;;;3.70;3.40;;;;;;;;;;5098374;28;20710;-57
2022/04/01 02:40:02;;;;;;;3.70;3.40;;;;;;;;;;5098264;28;20548;-57
2022/04/01 02:42:30;;;;;;;3.45;3.17;;;;;;;;;;5085068;28;20332;-57
2022/04/01 02:44:57;;;;;;;3.63;3.33;;;;;;;;;;5098020;28;20333;-58
2022/04/01 02:47:25;;;;;;;3.50;3.20;;;;;;;;;;5097650;28;20671;-57
2022/04/01 02:49:54;;;;;;;3.63;3.33;;;;;;;;;;5098019;28;20242;-57
2022/04/01 02:52:22;;;;;;;3.28;2.97;;;;;;;;;;5097308;28;20223;-57
2022/04/01 02:54:52;;;;;;;3.65;3.35;;;;;;;;;;5097548;28;20675;-57
2022/04/01 02:57:20;;;;;;;3.50;3.20;;;;;;;;;;5097662;28;20231;-57
2022/04/01 02:59:48;;;;;;;3.38;3.17;;;;;;;;;;5099008;28;20203;-57
2022/04/01 03:02:16;;;;;;;3.78;3.47;;;;;;;;;;5098834;28;20559;-57
2022/04/01 03:04:45;;;;;;;3.17;2.97;;;;;;;;;;5098019;28;20227;-57
2022/04/01 03:07:13;;;;;;;3.47;3.17;;;;;;;;;;5098696;28;20231;-57
2022/04/01 03:09:41;;;;;;;3.38;3.08;;;;;;;;;;5098617;28;20554;-57
2022/04/01 03:12:08;;;;;;;3.38;3.17;;;;;;;;;;5098423;28;20261;-57
2022/04/01 03:14:36;;;;;;;3.40;3.10;;;;;;;;;;5098576;28;20295;-57
2022/04/01 03:17:04;;;;;;;3.45;3.15;;;;;;;;;;5098394;28;20628;-57
2022/04/01 03:19:32;;;;;;;3.38;3.08;;;;;;;;;;5098409;28;20563;-57
2022/04/01 03:22:00;;;;;;;3.33;3.03;;;;;;;;;;5098232;28;20211;-57
2022/04/01 03:24:29;;;;;;;3.13;2.92;;;;;;;;;;5098733;28;20479;-57
2022/04/01 03:26:56;;;;;;;3.13;2.92;;;;;;;;;;5096423;28;20303;-57
2022/04/01 03:29:24;;;;;;;3.15;2.95;;;;;;;;;;5098174;28;20528;-57
2022/04/01 03:31:51;;;;;;;3.13;2.92;;;;;;;;;;5097127;28;20317;-57
2022/04/01 03:34:19;;;;;;;3.38;3.10;;;;;;;;;;5097485;28;20204;-57
2022/04/01 03:36:47;;;;;;;3.13;2.90;;;;;;;;;;5097158;28;20301;-57
2022/04/01 03:39:14;;;;;;;3.33;3.13;;;;;;;;;;5096720;28;20211;-57
2022/04/01 03:41:43;;;;;;;3.20;3.00;;;;;;;;;;5096334;28;20278;-57
2022/04/01 03:44:11;;;;;;;3.22;2.92;;;;;;;;;;5096492;28;20247;-57
2022/04/01 03:46:47;;;;;;;3.20;3.00;;;;;;;;;;5097467;28;20302;-58
2022/04/01 03:49:16;;;;;;;3.05;2.80;;;;;;;;;;5096153;28;20622;-57
2022/04/01 03:51:46;;;;;;;3.47;3.17;;;;;;;;;;5097156;28;20302;-57
2022/04/01 03:54:15;;;;;;;3.00;2.80;;;;;;;;;;5097141;28;20299;-57
2022/04/01 03:56:45;;;;;;;3.50;3.20;;;;;;;;;;5096792;28;20195;-57
2022/04/01 03:59:13;;;;;;;3.10;2.90;;;;;;;;;;5097674;28;20332;-57
2022/04/01 04:01:40;;;;;;;3.30;3.00;;;;;;;;;;5097489;28;20286;-57
2022/04/01 04:04:08;;;;;;;3.42;3.22;;;;;;;;;;5096304;28;20276;-57
2022/04/01 04:06:36;;;;;;;3.20;3.00;;;;;;;;;;5097085;28;20250;-57
2022/04/01 04:09:04;;;;;;;2.75;2.55;;;;;;;;;;5097806;28;20571;-56
2022/04/01 04:11:34;;;;;;;3.50;3.20;;;;;;;;;;5097350;28;20203;-56
2022/04/01 04:14:03;;;;;;;3.33;3.10;;;;;;;;;;5097481;28;20257;-56
2022/04/01 04:16:32;;;;;;;3.22;3.00;;;;;;;;;;5097468;28;20286;-56
2022/04/01 04:19:02;;;;;;;3.08;2.88;;;;;;;;;;5097223;28;20207;-56
2022/04/01 04:21:30;;;;;;;3.30;3.10;;;;;;;;;;5097341;28;20253;-56
2022/04/01 04:23:59;;;;;;;3.20;3.00;;;;;;;;;;5097108;28;20294;-56
2022/04/01 04:26:31;;;;;;;3.15;2.95;;;;;;;;;;5097696;28;20598;-56
2022/04/01 04:29:03;;;;;;;3.38;3.10;;;;;;;;;;5100180;28;20215;-56
2022/04/01 04:31:31;;;;;;;3.40;3.15;;;;;;;;;;5100021;28;20257;-56
2022/04/01 04:34:00;;;;;;;3.28;3.00;;;;;;;;;;5100676;28;20299;-56
2022/04/01 04:36:32;;;;;;;3.40;3.10;;;;;;;;;;5100781;28;20250;-57
2022/04/01 04:39:00;;;;;;;3.20;3.00;;;;;;;;;;5099339;28;20281;-57
2022/04/01 04:41:28;;;;;;;3.30;3.10;;;;;;;;;;5099891;28;20310;-57
2022/04/01 04:43:56;;;;;;;3.13;2.92;;;;;;;;;;5098908;28;20298;-57
2022/04/01 04:46:24;;;;;;;3.00;2.75;;;;;;;;;;5098926;28;20282;-57
2022/04/01 04:48:52;;;;;;;2.88;2.67;;;;;;;;;;5098788;28;20223;-57
2022/04/01 04:51:24;;;;;;;3.22;2.97;;;;;;;;;;5099420;28;20272;-56
2022/04/01 04:53:52;;;;;;;3.42;3.22;;;;;;;;;;5099185;28;20287;-56
2022/04/01 04:56:20;;;;;;;3.38;3.10;;;;;;;;;;5098712;28;20286;-56
2022/04/01 04:58:48;;;;;;;3.33;3.13;;;;;;;;;;5097791;28;20214;-56
2022/04/01 05:01:34;;;;;;;3.22;3.03;;;;;;;;;;5098143;28;20200;-56
2022/04/01 05:04:17;;;;;;;3.25;3.05;;;;;;;;;;5081816;28;20200;-56
2022/04/01 05:06:48;;;;;;;3.22;3.03;;;;;;;;;;5098619;28;20253;-56
2022/04/01 05:09:25;;;;;;;3.40;3.20;;;;;;;;;;5097750;28;20695;-56
2022/04/01 05:11:58;;;;;;;3.20;3.00;;;;;;;;;;5097803;28;20204;-56
2022/04/01 05:14:41;;;;;;;3.65;3.35;;;;;;;;;;5098212;28;20306;-56
2022/04/01 05:17:15;;;;;;;3.35;3.05;;;;;;;;;;5097305;28;20704;-57
2022/04/01 05:19:47;;;;;;;3.30;3.10;;;;;;;;;;5097657;28;20329;-57
2022/04/01 05:22:17;;;;;;;3.20;3.00;;;;;;;;;;5097169;28;20684;-57
2022/04/01 05:24:50;;;;;;;3.33;3.13;;;;;;;;;;5097539;28;20322;-58
2022/04/01 05:27:19;;;;;;;3.30;3.00;;;;;;;;;;5097971;28;20282;-57
2022/04/01 05:29:48;;;;;;;3.40;3.10;;;;;;;;;;5097631;28;20226;-57
2022/04/01 05:32:20;;;;;;;3.20;3.00;;;;;;;;;;5097237;28;20203;-57
2022/04/01 05:34:49;;;;;;;3.47;3.17;;;;;;;;;;5096850;28;20352;-57
2022/04/01 05:37:17;;;;;;;3.35;3.15;;;;;;;;;;5096342;28;20223;-57
2022/04/01 05:39:46;;;;;;;3.40;3.13;;;;;;;;;;5096106;28;20192;-57
2022/04/01 05:42:14;;;;;;;3.58;3.28;;;;;;;;;;5096766;28;20192;-57
2022/04/01 05:44:43;;;;;;;3.30;3.00;;;;;;;;;;5097010;28;20777;-57
2022/04/01 05:47:11;;;;;;;3.33;3.13;;;;;;;;;;5096738;28;20231;-57
2022/04/01 05:49:41;;;;;;;3.80;3.50;;;;;;;;;;5097065;28;20228;-57
2022/04/01 05:52:09;;;;;;;3.75;3.45;;;;;;;;;;5097058;28;20203;-57
2022/04/01 05:54:38;;;;;;;3.60;3.30;;;;;;;;;;5097388;28;20583;-56
2022/04/01 05:57:07;;;;;;;3.60;3.30;;;;;;;;;;5097826;28;20571;-56
2022/04/01 05:59:35;;;;;;;3.08;2.88;;;;;;;;;;5097646;28;20291;-57
2022/04/01 06:02:13;;;;;;;3.53;3.22;;;;;;;;;;5097190;28;20263;-56
2022/04/01 06:04:57;;;;;;;3.58;3.28;;;;;;;;;;5096652;28;20211;-56
2022/04/01 06:07:29;;;;;;;3.60;3.30;;;;;;;;;;5097566;28;20782;-57
2022/04/01 06:10:03;;;;;;;3.40;3.10;;;;;;;;;;5097818;28;20610;-57
2022/04/01 06:12:36;;;;;;;3.70;3.40;;;;;;;;;;5097205;28;20200;-57
2022/04/01 06:15:08;;;;;;;3.50;3.20;;;;;;;;;;5097206;28;20290;-56
2022/04/01 06:17:42;;;;;;;3.20;2.90;;;;;;;;;;5095719;28;20302;-57
2022/04/01 06:20:12;;;;;;;3.92;3.63;;;;;;;;;;5095588;28;20237;-57
2022/04/01 06:22:44;;;;;;;3.70;3.40;;;;;;;;;;5096914;28;20263;-57
2022/04/01 06:25:13;;;;;;;3.30;3.03;;;;;;;;;;5097901;28;20690;-57
2022/04/01 06:27:44;;;;;;;3.40;3.15;;;;;;;;;;5098181;28;20303;-58
2022/04/01 06:30:12;;;;;;;3.53;3.22;;;;;;;;;;5097571;28;20212;-57
2022/04/01 06:32:45;;;;;;;3.22;3.03;;;;;;;;;;5096734;28;20918;-57
2022/04/01 06:35:19;;;;;;;3.15;2.95;;;;;;;;;;5097313;28;20230;-57
2022/04/01 06:37:51;;;;;;;3.13;2.92;;;;;;;;;;5096255;28;20202;-56
2022/04/01 06:40:22;;;;;;;3.67;3.38;;;;;;;;;;5096740;28;20286;-57
2022/04/01 06:42:51;;;;;;;3.45;3.17;;;;;;;;;;5097541;28;20290;-56
2022/04/01 06:45:19;;;;;;;3.40;3.10;;;;;;;;;;5097384;28;20290;-56
2022/04/01 06:47:47;;;;;;;2.90;2.70;;;;;;;;;;5097044;28;20286;-57
2022/04/01 06:50:17;;;;;;;3.20;3.00;;;;;;;;;;5094302;28;20318;-57
2022/04/01 06:52:45;;;;;;;3.45;3.15;;;;;;;;;;5095631;28;20200;-57
2022/04/01 06:55:12;;;;;;;2.92;2.72;;;;;;;;;;5095507;28;20507;-57
2022/04/01 06:57:40;;;;;;;3.15;2.85;;;;;;;;;;5095427;28;20207;-56
2022/04/01 07:00:08;;;;;;;4.00;3.10;;;;;;;;;;5094343;28;20290;-56
2022/04/01 07:02:36;;;;;;;3.03;2.83;;;;;;;;;;5094907;28;20249;-56
2022/04/01 07:05:05;;;;;;;2.90;2.70;;;;;;;;;;5096080;28;20474;-56
2022/04/01 07:07:34;;;;;;;3.03;2.83;;;;;;;;;;5095452;28;20294;-56
2022/04/01 07:10:02;;;;;;;3.50;3.20;;;;;;;;;;5095999;28;20223;-56
2022/04/01 07:12:32;;;;;;;3.60;3.30;;;;;;;;;;5095853;28;20282;-56
2022/04/01 07:14:59;;;;;;;3.30;3.00;;;;;;;;;;5095722;28;20298;-56
2022/04/01 07:17:27;;;;;;;2.97;2.78;;;;;;;;;;5095229;28;20314;-56
2022/04/01 07:19:54;;;;;;;3.13;2.90;;;;;;;;;;5094148;28;20329;-57
2022/04/01 07:22:22;;;;;;;3.85;3.20;;;;;;;;;;5095646;28;20684;-57
2022/04/01 07:24:50;;;;;;;3.20;2.92;;;;;;;;;;5095808;28;20235;-57
2022/04/01 07:27:18;;;;;;;3.53;3.22;;;;;;;;;;5094693;28;20295;-57
2022/04/01 07:29:46;;;;;;;3.45;3.15;;;;;;;;;;5093867;28;20693;-56
2022/04/01 07:32:32;;;;;;;3.50;3.20;;;;;;;;;;5094480;28;20280;-56
2022/04/01 07:35:00;;;;;;;4.43;3.45;;;;;;;;;;5093592;28;20199;-56
2022/04/01 07:37:28;;;;;;;3.00;2.80;;;;;;;;;;5094706;28;20713;-56
2022/04/01 07:39:58;;;;;;;4.07;3.65;;;;;;;;;;5095673;28;20250;-56
2022/04/01 07:42:26;;;;;;;3.15;2.85;;;;;;;;;;5094995;28;20208;-56
2022/04/01 07:44:54;;;;;;;3.63;3.33;;;;;;;;;;5094972;28;20606;-56
2022/04/01 07:47:22;;;;;;;3.13;2.83;;;;;;;;;;5094734;28;20624;-56
2022/04/01 07:49:50;;;;;;;3.65;3.13;;;;;;;;;;5094540;28;20473;-56
2022/04/01 07:52:18;;;;;;;3.63;3.13;;;;;;;;;;5094797;28;20231;-57
2022/04/01 07:54:46;;;;;;;3.90;3.30;;;;;;;;;;5094760;28;20582;-57
2022/04/01 07:57:15;;;;;;;4.00;3.10;;;;;;;;;;5094764;28;20291;-57
2022/04/01 07:59:42;;;;;;;3.50;3.20;;;;;;;;;;5093976;28;20480;-57
2022/04/01 08:02:10;;;;;;;3.50;3.20;;;;;;;;;;5093884;28;20294;-57
2022/04/01 08:04:38;;;;;;;3.58;3.10;;;;;;;;;;5094139;28;20195;-57
2022/04/01 08:07:06;;;;;;;3.33;3.03;;;;;;;;;;5095273;28;20524;-57
2022/04/01 08:09:34;;;;;;;3.47;3.17;;;;;;;;;;5094455;28;20233;-57
2022/04/01 08:12:02;;;;;;;3.35;3.05;;;;;;;;;;5094651;28;20195;-57
2022/04/01 08:14:33;;;;;;;3.70;3.03;;;;;;;;;;5093880;28;20195;-57
2022/04/01 08:17:01;;;;;;;3.55;3.25;;;;;;;;;;5094335;28;20258;-56
2022/04/01 08:19:28;;;;;;;4.20;3.75;;;;;;;;;;5095010;28;20200;-56
2022/04/01 08:21:57;;;;;;;3.58;3.28;;;;;;;;;;5095143;28;20212;-56
2022/04/01 08:24:25;;;;;;;3.72;3.42;;;;;;;;;;5094481;28;20282;-57
2022/04/01 08:26:53;;;;;;;3.28;3.03;;;;;;;;;;5094332;28;20504;-57
2022/04/01 08:29:21;;;;;;;3.55;3.25;;;;;;;;;;5094808;28;20227;-57
2022/04/01 08:31:50;;;;;;;3.78;3.22;;;;;;;;;;5093608;28;20298;-57
2022/04/01 08:34:17;;;;;;;3.28;2.97;;;;;;;;;;5093608;28;20814;-57
2022/04/01 08:36:44;;;;;;;3.40;3.10;;;;;;;;;;5093932;28;20290;-56
2022/04/01 08:39:12;;;;;;;3.65;3.10;;;;;;;;;;5093427;28;20195;-58
2022/04/01 08:41:39;;;;;;;3.58;3.10;;;;;;;;;;5095829;28;20200;-56
2022/04/01 08:44:07;;;;;;;3.28;2.95;;;;;;;;;;5093946;28;20287;-57
2022/04/01 08:46:35;;;;;;;4.22;3.13;;;;;;;;;;5094565;28;20291;-57
2022/04/01 08:49:06;;;;;;;4.40;3.55;;;;;;;;;;5092641;28;20220;-57
2022/04/01 08:51:34;;;;;;;3.70;3.40;;;;;;;;;;5093875;28;20294;-56
2022/04/01 08:54:02;;;;;;;3.60;3.08;;;;;;;;;;5093750;28;20682;-56
2022/04/01 08:56:29;;;;;;;3.80;3.42;;;;;;;;;;5094594;28;20210;-57
2022/04/01 08:58:57;;;;;;;3.97;3.15;;;;;;;;;;5093393;28;20207;-57
2022/04/01 09:01:25;;;;;;;3.78;3.42;;;;;;;;;;5093732;28;20203;-57
2022/04/01 09:03:56;;;;;;;4.15;2.85;;;;;;;;;;5093731;28;20299;-56
2022/04/01 09:06:25;;;;;;;4.82;3.17;;;;;;;;;;5094264;28;20211;-56
2022/04/01 09:08:59;;;;;;;3.53;2.65;;;;;;;;;;5093099;28;20711;-57
2022/04/01 09:11:27;;;;;;;3.50;3.20;;;;;;;;;;5093626;28;20251;-57
2022/04/01 09:13:56;;;;;;;3.40;3.10;;;;;;;;;;5094957;28;20301;-57
2022/04/01 09:16:24;;;;;;;3.38;2.90;;;;;;;;;;5097631;28;20204;-56
2022/04/01 09:18:54;;;;;;;3.58;3.22;;;;;;;;;;5096377;28;20200;-58
2022/04/01 09:21:25;;;;;;;3.03;2.80;;;;;;;;;;5096719;28;20723;-57
2022/04/01 09:23:54;;;;;;;4.70;3.30;;;;;;;;;;5097280;28;20291;-57
2022/04/01 09:26:22;;;;;;;3.40;3.10;;;;;;;;;;5096197;28;20291;-57
2022/04/01 09:28:54;;;;;;;3.35;3.05;;;;;;;;;;5096815;28;20223;-57
2022/04/01 09:31:24;;;;;;;3.38;3.08;;;;;;;;;;5096843;28;20191;-57
2022/04/01 09:33:52;;;;;;;3.42;3.10;;;;;;;;;;5096894;28;20292;-57
2022/04/01 09:36:21;;;;;;;3.60;3.30;;;;;;;;;;5096240;28;20206;-57
2022/04/01 09:41:36;;;;;;;3.45;3.15;;;;;;;;;;5572029;22;20249;-56
2022/04/01 09:44:08;;;;;;;3.97;3.60;;;;;;;;;;5096057;28;20199;-56
2022/04/01 09:46:38;;;;;;;3.53;3.22;;;;;;;;;;5097023;28;20196;-56
2022/04/01 09:49:06;;;;;;;3.83;3.28;;;;;;;;;;5113313;28;20345;-56
2022/04/01 09:51:34;;;;;;;3.63;3.30;;;;;;;;;;5117139;28;20210;-56
2022/04/01 09:54:05;;;;;;;3.20;2.90;;;;;;;;;;5117172;28;20202;-55
2022/04/01 09:56:43;;;;;;;3.58;3.28;;;;;;;;;;5116979;28;20233;-55
2022/04/01 09:59:11;;;;;;;3.90;3.38;;;;;;;;;;5099785;28;20195;-55
2022/04/01 10:01:39;;;;;;;3.58;3.28;;;;;;;;;;5095501;28;20200;-55
2022/04/01 10:04:09;;;;;;;3.67;3.10;;;;;;;;;;5096012;28;20200;-55
2022/04/01 10:06:37;;;;;;;3.15;2.92;;;;;;;;;;5096082;28;20204;-55
2022/04/01 10:09:07;;;;;;;4.15;3.67;;;;;;;;;;5096331;28;20207;-55
2022/04/01 10:11:35;;;;;;;3.08;2.88;;;;;;;;;;5096831;28;20212;-55
2022/04/01 10:14:04;;;;;;;3.58;3.28;;;;;;;;;;5096147;28;20210;-56
2022/04/01 10:16:35;;;;;;;3.70;3.40;;;;;;;;;;5109930;28;20207;-56
2022/04/01 10:19:05;;;;;;;3.38;3.17;;;;;;;;;;5115629;28;20290;-56
2022/04/01 10:21:33;;;;;;;3.58;3.30;;;;;;;;;;5100221;28;20199;-56
2022/04/01 10:24:06;;;;;;;3.70;3.40;;;;;;;;;;5099070;28;20592;-56
2022/04/01 10:26:38;;;;;;;3.35;3.05;;;;;;;;;;5085605;28;20195;-56
2022/04/01 10:29:05;;;;;;;3.33;3.10;;;;;;;;;;5115480;28;20207;-56
2022/04/01 10:31:33;;;;;;;3.78;3.47;;;;;;;;;;5114730;28;20255;-55
2022/04/01 10:34:15;;;;;;;3.80;3.50;;;;;;;;;;5113256;28;20225;-55
2022/04/01 10:36:44;;;;;;;3.75;3.45;;;;;;;;;;5095657;28;20191;-56
2022/04/01 10:39:12;;;;;;;3.22;3.03;;;;;;;;;;5093910;28;20191;-55
2022/04/01 10:41:41;;;;;;;3.65;3.35;;;;;;;;;;5109222;28;20626;-55
2022/04/01 10:44:09;;;;;;;3.70;3.40;;;;;;;;;;5115232;28;20233;-55
2022/04/01 10:46:40;;;;;;;3.65;3.35;;;;;;;;;;5114668;28;20207;-56
2022/04/01 10:52:04;;;;;;;3.88;3.58;;;;;;;;;;5114773;28;20202;-56
2022/04/01 10:54:45;;;;;;;3.75;3.45;;;;;;;;;;5114446;28;20210;-56
2022/04/01 10:57:15;;;;;;;4.28;3.95;;;;;;;;;;5114162;28;20195;-56
2022/04/01 10:59:43;;;;;;;3.50;3.20;;;;;;;;;;5114200;28;20202;-56
2022/04/01 11:02:13;;;;;;;3.28;2.97;;;;;;;;;;5114500;28;20195;-55
2022/04/01 11:04:41;;;;;;;3.60;3.30;;;;;;;;;;5113959;28;20203;-55
2022/04/01 11:07:11;;;;;;;3.45;3.15;;;;;;;;;;5105690;28;20199;-56
2022/04/01 11:09:46;;;;;;;3.60;3.30;;;;;;;;;;5114481;28;20221;-56
2022/04/01 11:12:25;;;;;;;3.50;3.13;;;;;;;;;;5114795;28;20464;-56
2022/04/01 11:15:08;;;;;;;3.80;3.50;;;;;;;;;;5113141;28;20227;-56
2022/04/01 11:17:51;;;;;;;3.30;3.10;;;;;;;;;;5095180;28;20199;-55
2022/04/01 11:20:27;;;;;;;3.50;3.20;;;;;;;;;;5094323;28;20501;-55
2022/04/01 11:23:01;;;;;;;3.55;3.25;;;;;;;;;;5104877;28;20202;-56
2022/04/01 11:25:51;;;;;;;3.75;3.45;;;;;;;;;;5114340;28;20234;-56
2022/04/01 11:28:19;;;;;;;3.55;3.25;;;;;;;;;;5113838;28;20207;-55
2022/04/01 11:31:04;;;;;;;3.80;3.50;;;;;;;;;;5114533;28;20223;-55
2022/04/01 11:33:32;;;;;;;3.42;3.13;;;;;;;;;;5113270;28;20784;-55
2022/04/01 11:36:00;;;;;;;4.05;3.75;;;;;;;;;;5114003;28;20574;-56
2022/04/01 11:38:28;;;;;;;3.40;3.10;;;;;;;;;;5107016;28;20199;-56
2022/04/01 11:40:58;;;;;;;3.70;3.40;;;;;;;;;;5107771;28;20231;-56
2022/04/01 11:43:28;;;;;;;3.40;3.20;;;;;;;;;;5112601;28;20226;-56
2022/04/01 11:45:57;;;;;;;3.50;3.30;;;;;;;;;;5113570;28;20207;-57
2022/04/01 11:48:27;;;;;;;3.80;3.50;;;;;;;;;;5102004;28;20582;-56
2022/04/01 11:50:57;;;;;;;3.47;3.08;;;;;;;;;;5112501;28;20350;-55
2022/04/01 11:53:25;;;;;;;3.80;3.50;;;;;;;;;;5113345;28;20323;-56
2022/04/01 11:55:54;;;;;;;3.85;3.55;;;;;;;;;;5113298;28;20203;-56
2022/04/01 11:58:21;;;;;;;3.35;3.10;;;;;;;;;;5103061;28;20292;-56
2022/04/01 12:00:50;;;;;;;3.58;3.30;;;;;;;;;;5110268;28;20191;-56
2022/04/01 12:03:18;;;;;;;3.47;3.28;;;;;;;;;;5108665;28;20570;-56
2022/04/01 12:05:46;;;;;;;3.22;2.92;;;;;;;;;;5093096;28;20204;-56
2022/04/01 12:10:59;;;;;;;2.90;2.70;;;;;;;;;;5093311;28;20230;-56
2022/04/01 12:13:27;;;;;;;3.20;3.00;;;;;;;;;;5093096;28;20338;-56
2022/04/01 12:15:58;;;;;;;3.53;2.92;;;;;;;;;;5100415;28;20195;-56
2022/04/01 12:18:28;;;;;;;3.03;2.83;;;;;;;;;;5112284;28;20209;-56
2022/04/01 12:20:56;;;;;;;3.17;2.97;;;;;;;;;;5113363;28;20210;-56
2022/04/01 12:23:26;;;;;;;3.50;3.20;;;;;;;;;;5113566;28;20597;-56
2022/04/01 12:25:54;;;;;;;3.38;3.08;;;;;;;;;;5112671;28;20209;-56
2022/04/01 12:28:25;;;;;;;3.15;2.85;;;;;;;;;;5112133;28;20213;-56
2022/04/01 12:30:54;;;;;;;3.35;3.05;;;;;;;;;;5113097;28;20221;-56
2022/04/01 12:33:25;;;;;;;3.40;3.10;;;;;;;;;;5098494;28;20207;-56
2022/04/01 12:35:57;;;;;;;3.40;3.10;;;;;;;;;;5111416;28;20549;-55
2022/04/01 12:38:26;;;;;;;3.38;2.97;;;;;;;;;;5113599;28;20210;-55
2022/04/01 12:40:54;;;;;;;3.25;3.05;;;;;;;;;;5107847;28;20238;-56
2022/04/01 12:43:32;;;;;;;3.80;3.20;;;;;;;;;;5113187;28;20567;-55
2022/04/01 12:46:00;;;;;;;4.22;3.83;;;;;;;;;;5113839;28;20202;-56
2022/04/01 12:48:29;;;;;;;3.70;3.40;;;;;;;;;;5102599;28;20203;-56
2022/04/01 12:50:58;;;;;;;5.50;5.00;;;;;;;;;;5116988;28;20382;-55
2022/04/01 12:53:26;;;;;;;8.30;7.25;;;;;;;;;;5117659;28;20203;-56
2022/04/01 12:55:54;;;;;;;8.20;7.20;;;;;;;;;;5117191;28;20206;-56
2022/04/01 12:58:22;;;;;;;8.27;6.65;;;;;;;;;;5117362;28;20191;-56
2022/04/01 13:00:50;;;;;;;8.07;6.88;;;;;;;;;;5117735;28;20210;-55
2022/04/01 13:03:17;;;;;;;8.38;6.78;;;;;;;;;;5117036;28;20624;-56
2022/04/01 13:05:46;;;;;;;7.28;6.57;;;;;;;;;;5099262;28;20235;-55
2022/04/01 13:08:13;;;;;;;7.65;6.35;;;;;;;;;;5096570;28;20200;-56
2022/04/01 13:10:41;;;;;;;8.93;6.38;;;;;;;;;;5096587;28;20220;-56
2022/04/01 13:13:18;;;;;;;8.60;7.40;;;;;;;;;;5115928;28;20198;-55
2022/04/01 13:15:51;;;;;;;10.35;6.55;;;;;;;;;;5114954;28;20206;-56
2022/04/01 13:18:23;;;;;;;8.45;6.90;;;;;;;;;;5115424;28;20195;-56
2022/04/01 13:20:52;;;;;;;11.73;7.13;;;;;;;;;;5096324;28;20192;-55
2022/04/01 13:23:20;;;;;;;8.77;6.55;;;;;;;;;;5096408;28;20196;-55
2022/04/01 13:25:47;;;;;;;11.05;7.10;;;;;;;;;;5109061;28;20298;-56
2022/04/01 13:28:15;;;;;;;11.43;7.65;;;;;;;;;;5096779;28;20207;-56
2022/04/01 13:30:42;;;;;;;9.82;7.05;;;;;;;;;;5104107;28;20237;-56
2022/04/01 13:33:10;;;;;;;14.15;7.45;;;;;;;;;;5116600;28;20230;-56
2022/04/01 13:35:38;;;;;;;11.60;7.80;;;;;;;;;;5117123;28;20314;-56
2022/04/01 13:38:06;;;;;;;12.10;7.93;;;;;;;;;;5117779;28;20202;-56
2022/04/01 13:40:34;;;;;;;17.33;8.63;;;;;;;;;;5115206;28;20227;-56
2022/04/01 13:43:02;;;;;;;13.60;8.18;;;;;;;;;;5115267;28;20199;-56
2022/04/01 13:45:29;;;;;;;16.38;8.73;;;;;;;;;;5108070;28;20522;-56
2022/04/01 13:47:58;;;;;;;14.48;9.18;;;;;;;;;;5115622;28;20199;-56
2022/04/01 13:50:26;;;;;;;14.23;8.45;;;;;;;;;;5097785;28;20223;-56
2022/04/01 13:52:53;;;;;;;14.68;8.88;;;;;;;;;;5095841;28;20214;-56
2022/04/01 13:55:22;;;;;;;14.95;9.13;;;;;;;;;;5096812;28;20215;-55
2022/04/01 13:57:49;;;;;;;15.73;8.90;;;;;;;;;;5102044;28;20202;-55
2022/04/01 14:00:21;;;;;;;17.10;9.25;;;;;;;;;;5101824;28;20199;-55
2022/04/01 14:02:48;;;;;;;18.63;10.00;;;;;;;;;;5098152;28;20477;-55
2022/04/01 14:05:15;;;;;;;20.55;9.77;;;;;;;;;;5117404;28;20203;-55
2022/04/01 14:07:43;;;;;;;18.75;9.70;;;;;;;;;;5116597;28;20199;-55
2022/04/01 14:10:11;;;;;;;16.65;9.02;;;;;;;;;;5116740;28;20206;-55
2022/04/01 14:12:39;;;;;;;19.38;9.95;;;;;;;;;;5116606;28;20199;-55
2022/04/01 14:15:07;;;;;;;19.50;9.77;;;;;;;;;;5116264;28;20195;-55
2022/04/01 14:17:35;;;;;;;19.33;10.30;;;;;;;;;;5116495;28;20213;-56
2022/04/01 14:20:04;;;;;;;16.50;9.75;;;;;;;;;;5116511;28;20217;-56
2022/04/01 14:22:31;;;;;;;17.77;9.55;;;;;;;;;;5116253;28;20238;-55
2022/04/01 14:24:59;;;;;;;18.92;10.00;;;;;;;;;;5115707;28;20214;-55
2022/04/01 14:27:26;;;;;;;19.92;10.27;;;;;;;;;;5116021;28;20229;-55
2022/04/01 14:32:40;;;;;;;17.88;9.25;;;;;;;;;;5115817;28;20206;-55
2022/04/01 14:35:08;;;;;;;15.43;9.55;;;;;;;;;;5101746;28;20582;-56
2022/04/01 14:37:39;;;;;;;18.20;9.52;;;;;;;;;;5094973;28;20196;-56
2022/04/01 14:40:10;;;;;;;15.82;9.32;;;;;;;;;;5096789;28;20214;-56
2022/04/01 14:42:38;;;;;;;21.08;15.15;;;;;;;;;;5095404;28;20286;-55
2022/04/01 14:45:07;;;;;;;20.10;14.25;;;;;;;;;;5088544;28;20197;-56
2022/04/01 14:47:35;;;;;;;19.85;13.23;;;;;;;;;;5084076;28;20210;-55
2022/04/01 14:50:04;;;;;;;17.10;12.55;;;;;;;;;;5079603;28;20502;-56
2022/04/01 14:52:32;;;;;;;18.08;13.05;;;;;;;;;;5075125;28;20251;-56
2022/04/01 14:55:00;;;;;;;20.55;11.70;;;;;;;;;;5074764;28;20262;-55
2022/04/01 14:57:27;;;;;;;17.58;11.65;;;;;;;;;;5089994;28;20199;-55
2022/04/01 14:59:56;;;;;;;16.98;12.13;;;;;;;;;;5094728;28;20207;-56
2022/04/01 15:02:25;;;;;;;17.65;12.13;;;;;;;;;;5092733;28;20192;-56
2022/04/01 15:04:54;;;;;;;16.88;11.43;;;;;;;;;;5094329;28;20199;-56
2022/04/01 15:07:21;;;;;;;17.17;11.55;;;;;;;;;;5093569;28;20591;-56
2022/04/01 15:09:49;;;;;;;17.13;11.55;;;;;;;;;;5095209;28;20239;-55